sensor_id;sensor_type;location;lat;lon;timestamp;P1;durP1;ratioP1;P2;durP2;ratioP2
56141;SDS011;42018;48.588;10.836;2022-08-21T00:02:28;1.23;;;0.90;;
56141;SDS011;42018;48.588;10.836;2022-08-21T00:05:16;2.85;;;1.00;;
56141;SDS011;42018;48.588;10.836;2022-08-21T00:08:03;1.40;;;0.93;;
56141;SDS011;42018;48.588;10.836;2022-08-21T00:10:48;1.15;;;1.00;;
56141;SDS011;42018;48.588;10.836;2022-08-21T00:13:35;1.88;;;1.00;;
56141;SDS011;42018;48.588;10.836;2022-08-21T00:16:20;2.38;;;1.02;;
56141;SDS011;42018;48.588;10.836;2022-08-21T00:19:09;1.20;;;0.93;;
56141;SDS011;42018;48.588;10.836;2022-08-21T00:21:55;1.40;;;1.02;;
56141;SDS011;42018;48.588;10.836;2022-08-21T00:24:40;1.98;;;1.00;;
56141;SDS011;42018;48.588;10.836;2022-08-21T00:27:26;1.98;;;1.10;;
56141;SDS011;42018;48.588;10.836;2022-08-21T00:30:12;1.77;;;1.10;;
56141;SDS011;42018;48.588;10.836;2022-08-21T00:33:03;1.45;;;0.90;;
56141;SDS011;42018;48.588;10.836;2022-08-21T00:35:49;2.13;;;1.00;;
56141;SDS011;42018;48.588;10.836;2022-08-21T00:38:35;1.70;;;1.10;;
56141;SDS011;42018;48.588;10.836;2022-08-21T00:41:20;1.88;;;1.00;;
56141;SDS011;42018;48.588;10.836;2022-08-21T00:44:09;2.13;;;1.00;;
56141;SDS011;42018;48.588;10.836;2022-08-21T00:46:56;1.67;;;1.00;;
56141;SDS011;42018;48.588;10.836;2022-08-21T00:49:42;0.80;;;0.80;;
56141;SDS011;42018;48.588;10.836;2022-08-21T00:52:29;2.17;;;1.10;;
56141;SDS011;42018;48.588;10.836;2022-08-21T00:55:17;2.58;;;1.20;;
56141;SDS011;42018;48.588;10.836;2022-08-21T00:58:06;2.38;;;1.10;;
56141;SDS011;42018;48.588;10.836;2022-08-21T01:00:53;2.55;;;1.17;;
56141;SDS011;42018;48.588;10.836;2022-08-21T01:03:39;1.65;;;1.00;;
56141;SDS011;42018;48.588;10.836;2022-08-21T01:06:25;2.72;;;1.20;;
56141;SDS011;42018;48.588;10.836;2022-08-21T01:09:10;1.70;;;0.90;;
56141;SDS011;42018;48.588;10.836;2022-08-21T01:11:56;1.70;;;0.98;;
56141;SDS011;42018;48.588;10.836;2022-08-21T01:14:42;2.03;;;1.02;;
56141;SDS011;42018;48.588;10.836;2022-08-21T01:17:27;1.23;;;1.00;;
56141;SDS011;42018;48.588;10.836;2022-08-21T01:20:13;1.95;;;0.93;;
56141;SDS011;42018;48.588;10.836;2022-08-21T01:23:02;1.88;;;1.00;;
56141;SDS011;42018;48.588;10.836;2022-08-21T01:25:49;2.28;;;1.00;;
56141;SDS011;42018;48.588;10.836;2022-08-21T01:28:36;1.90;;;0.98;;
56141;SDS011;42018;48.588;10.836;2022-08-21T01:31:27;2.58;;;1.00;;
56141;SDS011;42018;48.588;10.836;2022-08-21T01:34:14;1.25;;;0.80;;
56141;SDS011;42018;48.588;10.836;2022-08-21T01:37:00;2.05;;;1.23;;
56141;SDS011;42018;48.588;10.836;2022-08-21T01:39:46;1.80;;;1.00;;
56141;SDS011;42018;48.588;10.836;2022-08-21T01:42:32;2.67;;;1.20;;
56141;SDS011;42018;48.588;10.836;2022-08-21T01:45:18;2.13;;;1.02;;
56141;SDS011;42018;48.588;10.836;2022-08-21T01:48:04;3.03;;;1.30;;
56141;SDS011;42018;48.588;10.836;2022-08-21T01:50:50;2.38;;;1.17;;
56141;SDS011;42018;48.588;10.836;2022-08-21T01:53:35;4.57;;;1.30;;
56141;SDS011;42018;48.588;10.836;2022-08-21T01:56:21;2.72;;;1.23;;
56141;SDS011;42018;48.588;10.836;2022-08-21T01:59:07;1.67;;;1.00;;
56141;SDS011;42018;48.588;10.836;2022-08-21T02:01:54;2.63;;;1.40;;
56141;SDS011;42018;48.588;10.836;2022-08-21T02:04:40;2.92;;;1.30;;
56141;SDS011;42018;48.588;10.836;2022-08-21T02:07:25;3.00;;;1.40;;
56141;SDS011;42018;48.588;10.836;2022-08-21T02:10:11;3.33;;;1.20;;
56141;SDS011;42018;48.588;10.836;2022-08-21T02:12:59;1.88;;;1.10;;
56141;SDS011;42018;48.588;10.836;2022-08-21T02:15:45;2.30;;;1.40;;
56141;SDS011;42018;48.588;10.836;2022-08-21T02:18:31;2.92;;;1.25;;
56141;SDS011;42018;48.588;10.836;2022-08-21T02:21:16;2.65;;;1.40;;
56141;SDS011;42018;48.588;10.836;2022-08-21T02:24:02;2.92;;;1.50;;
56141;SDS011;42018;48.588;10.836;2022-08-21T02:26:48;2.85;;;1.50;;
56141;SDS011;42018;48.588;10.836;2022-08-21T02:29:33;2.72;;;1.48;;
56141;SDS011;42018;48.588;10.836;2022-08-21T02:32:18;2.05;;;1.20;;
56141;SDS011;42018;48.588;10.836;2022-08-21T02:35:04;3.22;;;1.40;;
56141;SDS011;42018;48.588;10.836;2022-08-21T02:37:54;2.92;;;1.38;;
56141;SDS011;42018;48.588;10.836;2022-08-21T02:40:45;3.20;;;1.50;;
56141;SDS011;42018;48.588;10.836;2022-08-21T02:43:33;2.83;;;1.40;;
56141;SDS011;42018;48.588;10.836;2022-08-21T02:46:19;4.47;;;1.40;;
56141;SDS011;42018;48.588;10.836;2022-08-21T02:49:05;2.40;;;1.20;;
56141;SDS011;42018;48.588;10.836;2022-08-21T02:51:51;2.70;;;1.40;;
56141;SDS011;42018;48.588;10.836;2022-08-21T02:54:36;3.22;;;1.30;;
56141;SDS011;42018;48.588;10.836;2022-08-21T02:57:22;1.90;;;1.10;;
56141;SDS011;42018;48.588;10.836;2022-08-21T03:00:07;2.60;;;1.40;;
56141;SDS011;42018;48.588;10.836;2022-08-21T03:02:55;2.35;;;1.27;;
56141;SDS011;42018;48.588;10.836;2022-08-21T03:05:42;2.40;;;1.35;;
56141;SDS011;42018;48.588;10.836;2022-08-21T03:08:28;2.33;;;1.20;;
56141;SDS011;42018;48.588;10.836;2022-08-21T03:11:14;2.38;;;1.30;;
56141;SDS011;42018;48.588;10.836;2022-08-21T03:13:59;2.67;;;1.30;;
56141;SDS011;42018;48.588;10.836;2022-08-21T03:16:45;2.05;;;1.27;;
56141;SDS011;42018;48.588;10.836;2022-08-21T03:19:31;2.75;;;1.42;;
56141;SDS011;42018;48.588;10.836;2022-08-21T03:22:16;3.35;;;1.27;;
56141;SDS011;42018;48.588;10.836;2022-08-21T03:25:02;3.78;;;1.50;;
56141;SDS011;42018;48.588;10.836;2022-08-21T03:27:48;3.35;;;1.30;;
56141;SDS011;42018;48.588;10.836;2022-08-21T03:30:35;2.58;;;1.38;;
56141;SDS011;42018;48.588;10.836;2022-08-21T03:33:21;2.85;;;1.40;;
56141;SDS011;42018;48.588;10.836;2022-08-21T03:36:07;2.70;;;1.38;;
56141;SDS011;42018;48.588;10.836;2022-08-21T03:38:53;2.63;;;1.63;;
56141;SDS011;42018;48.588;10.836;2022-08-21T03:41:38;3.05;;;1.42;;
56141;SDS011;42018;48.588;10.836;2022-08-21T03:44:24;2.88;;;1.40;;
56141;SDS011;42018;48.588;10.836;2022-08-21T03:47:10;3.17;;;1.50;;
56141;SDS011;42018;48.588;10.836;2022-08-21T03:49:56;2.60;;;1.40;;
56141;SDS011;42018;48.588;10.836;2022-08-21T03:52:41;2.55;;;1.33;;
56141;SDS011;42018;48.588;10.836;2022-08-21T03:55:26;2.15;;;1.25;;
56141;SDS011;42018;48.588;10.836;2022-08-21T03:58:13;3.28;;;1.50;;
56141;SDS011;42018;48.588;10.836;2022-08-21T04:01:06;3.05;;;1.50;;
56141;SDS011;42018;48.588;10.836;2022-08-21T04:03:52;2.77;;;1.57;;
56141;SDS011;42018;48.588;10.836;2022-08-21T04:06:37;2.45;;;1.45;;
56141;SDS011;42018;48.588;10.836;2022-08-21T04:09:23;2.90;;;1.70;;
56141;SDS011;42018;48.588;10.836;2022-08-21T04:12:09;3.20;;;1.65;;
56141;SDS011;42018;48.588;10.836;2022-08-21T04:14:54;3.75;;;1.52;;
56141;SDS011;42018;48.588;10.836;2022-08-21T04:17:40;3.03;;;1.52;;
56141;SDS011;42018;48.588;10.836;2022-08-21T04:20:25;3.00;;;1.50;;
56141;SDS011;42018;48.588;10.836;2022-08-21T04:23:11;3.67;;;1.55;;
56141;SDS011;42018;48.588;10.836;2022-08-21T04:25:57;3.05;;;1.50;;
56141;SDS011;42018;48.588;10.836;2022-08-21T04:28:43;4.07;;;1.60;;
56141;SDS011;42018;48.588;10.836;2022-08-21T04:31:29;2.20;;;1.30;;
56141;SDS011;42018;48.588;10.836;2022-08-21T04:34:14;2.20;;;1.27;;
56141;SDS011;42018;48.588;10.836;2022-08-21T04:37:00;2.70;;;1.50;;
56141;SDS011;42018;48.588;10.836;2022-08-21T04:39:45;2.20;;;1.40;;
56141;SDS011;42018;48.588;10.836;2022-08-21T04:42:30;2.67;;;1.40;;
56141;SDS011;42018;48.588;10.836;2022-08-21T04:45:17;2.80;;;1.38;;
56141;SDS011;42018;48.588;10.836;2022-08-21T04:48:07;3.28;;;1.52;;
56141;SDS011;42018;48.588;10.836;2022-08-21T04:51:00;1.95;;;1.20;;
56141;SDS011;42018;48.588;10.836;2022-08-21T04:54:01;2.92;;;1.20;;
56141;SDS011;42018;48.588;10.836;2022-08-21T04:56:55;2.95;;;1.30;;
56141;SDS011;42018;48.588;10.836;2022-08-21T04:59:45;2.60;;;1.30;;
56141;SDS011;42018;48.588;10.836;2022-08-21T05:02:35;1.58;;;1.20;;
56141;SDS011;42018;48.588;10.836;2022-08-21T05:05:21;2.28;;;1.40;;
56141;SDS011;42018;48.588;10.836;2022-08-21T05:08:07;2.97;;;1.40;;
56141;SDS011;42018;48.588;10.836;2022-08-21T05:10:54;3.55;;;1.48;;
56141;SDS011;42018;48.588;10.836;2022-08-21T05:13:40;2.30;;;1.30;;
56141;SDS011;42018;48.588;10.836;2022-08-21T05:16:28;2.33;;;1.33;;
56141;SDS011;42018;48.588;10.836;2022-08-21T05:19:14;2.10;;;1.40;;
56141;SDS011;42018;48.588;10.836;2022-08-21T05:21:59;2.95;;;1.50;;
56141;SDS011;42018;48.588;10.836;2022-08-21T05:24:45;2.65;;;1.20;;
56141;SDS011;42018;48.588;10.836;2022-08-21T05:27:31;2.72;;;1.30;;
56141;SDS011;42018;48.588;10.836;2022-08-21T05:30:16;3.03;;;1.40;;
56141;SDS011;42018;48.588;10.836;2022-08-21T05:33:02;3.30;;;1.50;;
56141;SDS011;42018;48.588;10.836;2022-08-21T05:35:50;4.18;;;1.73;;
56141;SDS011;42018;48.588;10.836;2022-08-21T05:38:37;2.75;;;1.60;;
56141;SDS011;42018;48.588;10.836;2022-08-21T05:41:22;3.47;;;1.85;;
56141;SDS011;42018;48.588;10.836;2022-08-21T05:44:07;3.90;;;1.83;;
56141;SDS011;42018;48.588;10.836;2022-08-21T05:46:53;2.90;;;1.75;;
56141;SDS011;42018;48.588;10.836;2022-08-21T05:49:38;2.92;;;1.73;;
56141;SDS011;42018;48.588;10.836;2022-08-21T05:52:24;3.10;;;1.73;;
56141;SDS011;42018;48.588;10.836;2022-08-21T05:55:09;2.90;;;1.52;;
56141;SDS011;42018;48.588;10.836;2022-08-21T05:57:55;4.30;;;1.60;;
56141;SDS011;42018;48.588;10.836;2022-08-21T06:00:40;3.92;;;1.77;;
56141;SDS011;42018;48.588;10.836;2022-08-21T06:03:27;3.75;;;2.08;;
56141;SDS011;42018;48.588;10.836;2022-08-21T06:06:14;4.15;;;2.00;;
56141;SDS011;42018;48.588;10.836;2022-08-21T06:09:00;4.13;;;2.20;;
56141;SDS011;42018;48.588;10.836;2022-08-21T06:11:46;3.58;;;2.03;;
56141;SDS011;42018;48.588;10.836;2022-08-21T06:14:31;3.63;;;1.80;;
56141;SDS011;42018;48.588;10.836;2022-08-21T06:17:17;3.50;;;2.10;;
56141;SDS011;42018;48.588;10.836;2022-08-21T06:20:03;4.68;;;2.30;;
56141;SDS011;42018;48.588;10.836;2022-08-21T06:22:49;3.00;;;2.08;;
56141;SDS011;42018;48.588;10.836;2022-08-21T06:25:35;4.32;;;2.28;;
56141;SDS011;42018;48.588;10.836;2022-08-21T06:28:20;3.50;;;2.10;;
56141;SDS011;42018;48.588;10.836;2022-08-21T06:31:25;3.85;;;2.20;;
56141;SDS011;42018;48.588;10.836;2022-08-21T06:34:11;3.20;;;2.10;;
56141;SDS011;42018;48.588;10.836;2022-08-21T06:36:57;2.97;;;1.90;;
56141;SDS011;42018;48.588;10.836;2022-08-21T06:39:43;3.33;;;2.00;;
56141;SDS011;42018;48.588;10.836;2022-08-21T06:42:28;3.53;;;1.90;;
56141;SDS011;42018;48.588;10.836;2022-08-21T06:45:14;3.88;;;1.90;;
56141;SDS011;42018;48.588;10.836;2022-08-21T06:47:59;3.20;;;1.85;;
56141;SDS011;42018;48.588;10.836;2022-08-21T06:50:45;3.35;;;2.00;;
56141;SDS011;42018;48.588;10.836;2022-08-21T06:53:30;2.95;;;1.77;;
56141;SDS011;42018;48.588;10.836;2022-08-21T06:56:16;3.65;;;2.20;;
56141;SDS011;42018;48.588;10.836;2022-08-21T06:59:02;3.42;;;2.10;;
56141;SDS011;42018;48.588;10.836;2022-08-21T07:01:47;4.10;;;2.00;;
56141;SDS011;42018;48.588;10.836;2022-08-21T07:04:33;3.92;;;2.05;;
56141;SDS011;42018;48.588;10.836;2022-08-21T07:07:18;3.65;;;2.00;;
56141;SDS011;42018;48.588;10.836;2022-08-21T07:10:04;3.88;;;2.20;;
56141;SDS011;42018;48.588;10.836;2022-08-21T07:12:50;4.85;;;2.10;;
56141;SDS011;42018;48.588;10.836;2022-08-21T07:15:37;3.25;;;1.80;;
56141;SDS011;42018;48.588;10.836;2022-08-21T07:18:22;4.97;;;2.30;;
56141;SDS011;42018;48.588;10.836;2022-08-21T07:21:08;3.50;;;2.15;;
56141;SDS011;42018;48.588;10.836;2022-08-21T07:23:54;3.30;;;2.10;;
56141;SDS011;42018;48.588;10.836;2022-08-21T07:26:40;3.15;;;1.90;;
56141;SDS011;42018;48.588;10.836;2022-08-21T07:29:25;3.53;;;2.10;;
56141;SDS011;42018;48.588;10.836;2022-08-21T07:32:11;3.75;;;2.35;;
56141;SDS011;42018;48.588;10.836;2022-08-21T07:34:56;3.70;;;2.25;;
56141;SDS011;42018;48.588;10.836;2022-08-21T07:37:42;3.20;;;2.10;;
56141;SDS011;42018;48.588;10.836;2022-08-21T07:40:27;4.72;;;2.22;;
56141;SDS011;42018;48.588;10.836;2022-08-21T07:43:13;4.30;;;2.40;;
56141;SDS011;42018;48.588;10.836;2022-08-21T07:46:00;4.13;;;2.30;;
56141;SDS011;42018;48.588;10.836;2022-08-21T07:48:45;4.18;;;2.63;;
56141;SDS011;42018;48.588;10.836;2022-08-21T07:51:31;4.47;;;2.72;;
56141;SDS011;42018;48.588;10.836;2022-08-21T07:54:18;3.95;;;2.28;;
56141;SDS011;42018;48.588;10.836;2022-08-21T07:57:04;3.70;;;2.38;;
56141;SDS011;42018;48.588;10.836;2022-08-21T07:59:49;3.83;;;2.40;;
56141;SDS011;42018;48.588;10.836;2022-08-21T08:02:35;4.35;;;2.30;;
56141;SDS011;42018;48.588;10.836;2022-08-21T08:05:21;4.03;;;2.40;;
56141;SDS011;42018;48.588;10.836;2022-08-21T08:08:09;3.97;;;2.30;;
56141;SDS011;42018;48.588;10.836;2022-08-21T08:10:55;4.22;;;2.53;;
56141;SDS011;42018;48.588;10.836;2022-08-21T08:13:43;4.20;;;2.70;;
56141;SDS011;42018;48.588;10.836;2022-08-21T08:16:31;4.00;;;2.30;;
56141;SDS011;42018;48.588;10.836;2022-08-21T08:19:17;4.50;;;2.72;;
56141;SDS011;42018;48.588;10.836;2022-08-21T08:22:11;4.32;;;2.60;;
56141;SDS011;42018;48.588;10.836;2022-08-21T08:24:58;4.40;;;2.40;;
56141;SDS011;42018;48.588;10.836;2022-08-21T08:27:44;4.10;;;2.50;;
56141;SDS011;42018;48.588;10.836;2022-08-21T08:30:30;4.55;;;2.65;;
56141;SDS011;42018;48.588;10.836;2022-08-21T08:33:15;4.43;;;2.70;;
56141;SDS011;42018;48.588;10.836;2022-08-21T08:36:02;4.10;;;2.30;;
56141;SDS011;42018;48.588;10.836;2022-08-21T08:38:48;5.15;;;2.78;;
56141;SDS011;42018;48.588;10.836;2022-08-21T08:41:33;4.70;;;2.30;;
56141;SDS011;42018;48.588;10.836;2022-08-21T08:44:21;4.18;;;2.50;;
56141;SDS011;42018;48.588;10.836;2022-08-21T08:47:16;4.28;;;2.70;;
56141;SDS011;42018;48.588;10.836;2022-08-21T08:50:05;4.07;;;2.58;;
56141;SDS011;42018;48.588;10.836;2022-08-21T08:52:54;4.38;;;2.83;;
56141;SDS011;42018;48.588;10.836;2022-08-21T08:55:47;5.13;;;2.38;;
56141;SDS011;42018;48.588;10.836;2022-08-21T08:58:36;3.85;;;2.53;;
56141;SDS011;42018;48.588;10.836;2022-08-21T09:01:24;3.80;;;2.30;;
56141;SDS011;42018;48.588;10.836;2022-08-21T09:04:10;4.13;;;2.38;;
56141;SDS011;42018;48.588;10.836;2022-08-21T09:07:12;3.80;;;2.42;;
56141;SDS011;42018;48.588;10.836;2022-08-21T09:16:07;3.10;;;1.95;;
56141;SDS011;42018;48.588;10.836;2022-08-21T09:25:22;3.83;;;2.10;;
56141;SDS011;42018;48.588;10.836;2022-08-21T09:30:57;3.80;;;2.20;;
56141;SDS011;42018;48.588;10.836;2022-08-21T09:36:45;3.70;;;2.13;;
56141;SDS011;42018;48.588;10.836;2022-08-21T09:39:37;3.35;;;1.98;;
56141;SDS011;42018;48.588;10.836;2022-08-21T09:42:26;3.53;;;1.80;;
56141;SDS011;42018;48.588;10.836;2022-08-21T09:45:16;3.20;;;1.60;;
56141;SDS011;42018;48.588;10.836;2022-08-21T09:51:05;4.07;;;2.03;;
56141;SDS011;42018;48.588;10.836;2022-08-21T09:54:37;3.83;;;1.92;;
56141;SDS011;42018;48.588;10.836;2022-08-21T10:03:20;3.30;;;1.90;;
56141;SDS011;42018;48.588;10.836;2022-08-21T10:06:07;5.43;;;1.85;;
56141;SDS011;42018;48.588;10.836;2022-08-21T10:09:13;3.33;;;1.73;;
56141;SDS011;42018;48.588;10.836;2022-08-21T10:18:02;3.08;;;1.60;;
56141;SDS011;42018;48.588;10.836;2022-08-21T10:24:29;4.00;;;1.70;;
56141;SDS011;42018;48.588;10.836;2022-08-21T10:27:37;3.20;;;1.70;;
56141;SDS011;42018;48.588;10.836;2022-08-21T10:37:01;4.15;;;1.85;;
56141;SDS011;42018;48.588;10.836;2022-08-21T10:49:21;4.03;;;1.70;;
56141;SDS011;42018;48.588;10.836;2022-08-21T10:58:04;4.82;;;1.40;;
56141;SDS011;42018;48.588;10.836;2022-08-21T11:00:58;3.95;;;1.70;;
56141;SDS011;42018;48.588;10.836;2022-08-21T11:04:09;3.75;;;1.70;;
56141;SDS011;42018;48.588;10.836;2022-08-21T11:07:06;5.47;;;1.50;;
56141;SDS011;42018;48.588;10.836;2022-08-21T11:10:27;2.47;;;1.30;;
56141;SDS011;42018;48.588;10.836;2022-08-21T11:13:38;3.25;;;1.50;;
56141;SDS011;42018;48.588;10.836;2022-08-21T11:19:59;4.57;;;1.63;;
56141;SDS011;42018;48.588;10.836;2022-08-21T11:23:07;3.15;;;1.60;;
56141;SDS011;42018;48.588;10.836;2022-08-21T11:26:09;3.38;;;1.58;;
56141;SDS011;42018;48.588;10.836;2022-08-21T11:29:44;4.60;;;1.50;;
56141;SDS011;42018;48.588;10.836;2022-08-21T11:44:18;3.55;;;1.55;;
56141;SDS011;42018;48.588;10.836;2022-08-21T11:50:43;3.13;;;1.40;;
56141;SDS011;42018;48.588;10.836;2022-08-21T11:56:54;2.75;;;1.50;;
56141;SDS011;42018;48.588;10.836;2022-08-21T11:59:53;4.93;;;1.50;;
56141;SDS011;42018;48.588;10.836;2022-08-21T12:03:24;2.78;;;1.30;;
56141;SDS011;42018;48.588;10.836;2022-08-21T12:06:04;3.10;;;1.40;;
56141;SDS011;42018;48.588;10.836;2022-08-21T12:09:03;2.53;;;1.20;;
56141;SDS011;42018;48.588;10.836;2022-08-21T12:12:22;3.10;;;1.38;;
56141;SDS011;42018;48.588;10.836;2022-08-21T12:18:19;3.05;;;1.30;;
56141;SDS011;42018;48.588;10.836;2022-08-21T12:21:21;3.50;;;1.30;;
56141;SDS011;42018;48.588;10.836;2022-08-21T12:26:58;2.83;;;1.40;;
56141;SDS011;42018;48.588;10.836;2022-08-21T12:30:05;2.42;;;1.15;;
56141;SDS011;42018;48.588;10.836;2022-08-21T12:33:04;2.80;;;1.30;;
56141;SDS011;42018;48.588;10.836;2022-08-21T12:36:15;3.60;;;1.20;;
56141;SDS011;42018;48.588;10.836;2022-08-21T12:39:11;4.35;;;1.40;;
56141;SDS011;42018;48.588;10.836;2022-08-21T12:42:00;2.42;;;1.15;;
56141;SDS011;42018;48.588;10.836;2022-08-21T12:44:59;2.38;;;1.20;;
56141;SDS011;42018;48.588;10.836;2022-08-21T12:53:45;3.30;;;1.20;;
56141;SDS011;42018;48.588;10.836;2022-08-21T12:56:36;2.47;;;1.13;;
56141;SDS011;42018;48.588;10.836;2022-08-21T12:59:25;2.53;;;1.30;;
56141;SDS011;42018;48.588;10.836;2022-08-21T13:02:18;5.05;;;1.25;;
56141;SDS011;42018;48.588;10.836;2022-08-21T13:05:07;2.45;;;1.15;;
56141;SDS011;42018;48.588;10.836;2022-08-21T13:07:57;2.92;;;1.27;;
56141;SDS011;42018;48.588;10.836;2022-08-21T13:10:43;2.72;;;1.10;;
56141;SDS011;42018;48.588;10.836;2022-08-21T13:13:32;2.80;;;1.30;;
56141;SDS011;42018;48.588;10.836;2022-08-21T13:16:25;3.03;;;1.17;;
56141;SDS011;42018;48.588;10.836;2022-08-21T13:19:16;2.97;;;1.30;;
56141;SDS011;42018;48.588;10.836;2022-08-21T13:22:03;2.55;;;1.13;;
56141;SDS011;42018;48.588;10.836;2022-08-21T13:24:58;1.60;;;0.95;;
56141;SDS011;42018;48.588;10.836;2022-08-21T13:27:44;2.72;;;1.15;;
56141;SDS011;42018;48.588;10.836;2022-08-21T13:30:43;3.27;;;1.33;;
56141;SDS011;42018;48.588;10.836;2022-08-21T13:33:31;3.00;;;1.17;;
56141;SDS011;42018;48.588;10.836;2022-08-21T13:36:26;2.45;;;1.25;;
56141;SDS011;42018;48.588;10.836;2022-08-21T13:39:17;2.17;;;1.10;;
56141;SDS011;42018;48.588;10.836;2022-08-21T13:42:04;2.05;;;1.10;;
56141;SDS011;42018;48.588;10.836;2022-08-21T13:44:57;4.47;;;1.38;;
56141;SDS011;42018;48.588;10.836;2022-08-21T13:47:43;1.58;;;1.00;;
56141;SDS011;42018;48.588;10.836;2022-08-21T13:50:35;3.00;;;1.15;;
56141;SDS011;42018;48.588;10.836;2022-08-21T13:56:30;3.42;;;1.17;;
56141;SDS011;42018;48.588;10.836;2022-08-21T13:59:29;2.67;;;1.20;;
56141;SDS011;42018;48.588;10.836;2022-08-21T14:02:23;2.58;;;1.17;;
56141;SDS011;42018;48.588;10.836;2022-08-21T14:05:31;1.98;;;1.10;;
56141;SDS011;42018;48.588;10.836;2022-08-21T14:08:36;3.00;;;1.20;;
56141;SDS011;42018;48.588;10.836;2022-08-21T14:11:26;1.92;;;1.10;;
56141;SDS011;42018;48.588;10.836;2022-08-21T14:14:20;2.45;;;1.30;;
56141;SDS011;42018;48.588;10.836;2022-08-21T14:17:10;3.00;;;1.20;;
56141;SDS011;42018;48.588;10.836;2022-08-21T14:22:45;2.80;;;1.27;;
56141;SDS011;42018;48.588;10.836;2022-08-21T14:25:42;2.72;;;1.20;;
56141;SDS011;42018;48.588;10.836;2022-08-21T14:28:30;2.85;;;1.15;;
56141;SDS011;42018;48.588;10.836;2022-08-21T14:31:19;2.15;;;1.10;;
56141;SDS011;42018;48.588;10.836;2022-08-21T14:34:06;2.55;;;1.15;;
56141;SDS011;42018;48.588;10.836;2022-08-21T14:36:51;2.55;;;1.20;;
56141;SDS011;42018;48.588;10.836;2022-08-21T14:39:37;2.45;;;1.25;;
56141;SDS011;42018;48.588;10.836;2022-08-21T14:42:23;1.48;;;1.00;;
56141;SDS011;42018;48.588;10.836;2022-08-21T14:45:25;3.67;;;1.25;;
56141;SDS011;42018;48.588;10.836;2022-08-21T14:48:13;2.58;;;1.20;;
56141;SDS011;42018;48.588;10.836;2022-08-21T14:50:58;1.92;;;1.00;;
56141;SDS011;42018;48.588;10.836;2022-08-21T14:53:44;6.07;;;1.50;;
56141;SDS011;42018;48.588;10.836;2022-08-21T14:56:30;2.60;;;1.30;;
56141;SDS011;42018;48.588;10.836;2022-08-21T14:59:16;2.00;;;1.20;;
56141;SDS011;42018;48.588;10.836;2022-08-21T15:02:02;3.03;;;1.08;;
56141;SDS011;42018;48.588;10.836;2022-08-21T15:04:50;2.70;;;1.10;;
56141;SDS011;42018;48.588;10.836;2022-08-21T15:07:36;3.63;;;1.10;;
56141;SDS011;42018;48.588;10.836;2022-08-21T15:10:23;1.38;;;0.93;;
56141;SDS011;42018;48.588;10.836;2022-08-21T15:13:11;3.00;;;1.20;;
56141;SDS011;42018;48.588;10.836;2022-08-21T15:15:56;2.53;;;1.10;;
56141;SDS011;42018;48.588;10.836;2022-08-21T15:18:41;1.80;;;1.10;;
56141;SDS011;42018;48.588;10.836;2022-08-21T15:21:27;2.95;;;1.38;;
56141;SDS011;42018;48.588;10.836;2022-08-21T15:24:13;3.58;;;1.10;;
56141;SDS011;42018;48.588;10.836;2022-08-21T15:26:59;1.83;;;1.08;;
56141;SDS011;42018;48.588;10.836;2022-08-21T15:29:46;2.50;;;1.13;;
56141;SDS011;42018;48.588;10.836;2022-08-21T15:32:31;2.55;;;1.20;;
56141;SDS011;42018;48.588;10.836;2022-08-21T15:35:17;2.58;;;1.13;;
56141;SDS011;42018;48.588;10.836;2022-08-21T15:38:03;1.85;;;1.08;;
56141;SDS011;42018;48.588;10.836;2022-08-21T15:40:48;2.30;;;1.15;;
56141;SDS011;42018;48.588;10.836;2022-08-21T15:43:38;2.92;;;1.20;;
56141;SDS011;42018;48.588;10.836;2022-08-21T15:46:27;1.95;;;1.10;;
56141;SDS011;42018;48.588;10.836;2022-08-21T15:49:13;1.92;;;1.10;;
56141;SDS011;42018;48.588;10.836;2022-08-21T15:51:58;2.05;;;1.10;;
56141;SDS011;42018;48.588;10.836;2022-08-21T15:54:44;2.72;;;1.20;;
56141;SDS011;42018;48.588;10.836;2022-08-21T15:57:29;3.03;;;1.00;;
56141;SDS011;42018;48.588;10.836;2022-08-21T16:00:16;2.25;;;1.17;;
56141;SDS011;42018;48.588;10.836;2022-08-21T16:03:08;2.00;;;1.00;;
56141;SDS011;42018;48.588;10.836;2022-08-21T16:05:58;3.30;;;1.20;;
56141;SDS011;42018;48.588;10.836;2022-08-21T16:08:44;2.13;;;1.20;;
56141;SDS011;42018;48.588;10.836;2022-08-21T16:11:32;2.40;;;1.20;;
56141;SDS011;42018;48.588;10.836;2022-08-21T16:14:18;2.85;;;1.13;;
56141;SDS011;42018;48.588;10.836;2022-08-21T16:17:04;2.80;;;1.30;;
56141;SDS011;42018;48.588;10.836;2022-08-21T16:19:50;3.58;;;1.30;;
56141;SDS011;42018;48.588;10.836;2022-08-21T16:22:36;3.13;;;1.10;;
56141;SDS011;42018;48.588;10.836;2022-08-21T16:25:22;2.88;;;1.25;;
56141;SDS011;42018;48.588;10.836;2022-08-21T16:28:08;3.13;;;1.30;;
56141;SDS011;42018;48.588;10.836;2022-08-21T16:30:57;2.42;;;1.15;;
56141;SDS011;42018;48.588;10.836;2022-08-21T16:33:43;2.83;;;1.10;;
56141;SDS011;42018;48.588;10.836;2022-08-21T16:36:33;1.42;;;0.90;;
56141;SDS011;42018;48.588;10.836;2022-08-21T16:39:18;2.45;;;1.20;;
56141;SDS011;42018;48.588;10.836;2022-08-21T16:42:04;2.55;;;1.10;;
56141;SDS011;42018;48.588;10.836;2022-08-21T16:44:51;2.63;;;1.02;;
56141;SDS011;42018;48.588;10.836;2022-08-21T16:47:38;2.03;;;1.10;;
56141;SDS011;42018;48.588;10.836;2022-08-21T16:50:25;3.42;;;1.17;;
56141;SDS011;42018;48.588;10.836;2022-08-21T16:53:10;1.98;;;1.20;;
56141;SDS011;42018;48.588;10.836;2022-08-21T16:55:55;2.42;;;1.20;;
56141;SDS011;42018;48.588;10.836;2022-08-21T16:58:42;1.88;;;1.00;;
56141;SDS011;42018;48.588;10.836;2022-08-21T17:01:32;2.75;;;1.20;;
56141;SDS011;42018;48.588;10.836;2022-08-21T17:04:19;1.83;;;1.10;;
56141;SDS011;42018;48.588;10.836;2022-08-21T17:07:04;2.80;;;1.20;;
56141;SDS011;42018;48.588;10.836;2022-08-21T17:09:50;2.40;;;1.20;;
56141;SDS011;42018;48.588;10.836;2022-08-21T17:12:36;1.90;;;1.10;;
56141;SDS011;42018;48.588;10.836;2022-08-21T17:15:23;2.15;;;1.10;;
56141;SDS011;42018;48.588;10.836;2022-08-21T17:18:12;2.38;;;1.20;;
56141;SDS011;42018;48.588;10.836;2022-08-21T17:21:01;2.33;;;1.10;;
56141;SDS011;42018;48.588;10.836;2022-08-21T17:23:46;2.08;;;1.13;;
56141;SDS011;42018;48.588;10.836;2022-08-21T17:26:33;1.73;;;1.00;;
56141;SDS011;42018;48.588;10.836;2022-08-21T17:29:19;1.55;;;0.95;;
56141;SDS011;42018;48.588;10.836;2022-08-21T17:32:10;2.92;;;1.20;;
56141;SDS011;42018;48.588;10.836;2022-08-21T17:34:56;3.08;;;1.30;;
56141;SDS011;42018;48.588;10.836;2022-08-21T17:37:42;3.20;;;1.58;;
56141;SDS011;42018;48.588;10.836;2022-08-21T17:40:27;3.20;;;1.60;;
56141;SDS011;42018;48.588;10.836;2022-08-21T17:43:14;2.92;;;1.40;;
56141;SDS011;42018;48.588;10.836;2022-08-21T17:45:59;3.20;;;1.50;;
56141;SDS011;42018;48.588;10.836;2022-08-21T17:48:45;3.03;;;1.40;;
56141;SDS011;42018;48.588;10.836;2022-08-21T17:51:30;3.00;;;1.48;;
56141;SDS011;42018;48.588;10.836;2022-08-21T17:54:16;2.88;;;1.30;;
56141;SDS011;42018;48.588;10.836;2022-08-21T17:57:02;2.67;;;1.20;;
56141;SDS011;42018;48.588;10.836;2022-08-21T17:59:49;2.22;;;1.17;;
56141;SDS011;42018;48.588;10.836;2022-08-21T18:02:35;2.20;;;1.15;;
56141;SDS011;42018;48.588;10.836;2022-08-21T18:05:21;2.53;;;1.20;;
56141;SDS011;42018;48.588;10.836;2022-08-21T18:08:06;3.75;;;1.40;;
56141;SDS011;42018;48.588;10.836;2022-08-21T18:10:52;2.78;;;1.48;;
56141;SDS011;42018;48.588;10.836;2022-08-21T18:13:38;2.38;;;1.40;;
56141;SDS011;42018;48.588;10.836;2022-08-21T18:16:24;3.55;;;1.50;;
56141;SDS011;42018;48.588;10.836;2022-08-21T18:19:13;2.83;;;1.40;;